Time;durP1;ratioP1;P1;durP2;ratioP2;P2;SDS_P1;SDS_P2;PMS_P1;PMS_P2;Temp;Humidity;BMP_temperature;BMP_pressure;BME280_temperature;BME280_humidity;BME280_pressure;Samples;Min_cycle;Max_cycle;Signal;HPM_P1;HPM_P2
2023/01/04 00:02:46;;;;;;;15.50;7.57;;;6.50;99.90;;;;;;5060574;28;20606;-84
2023/01/04 00:05:36;;;;;;;13.20;7.37;;;6.50;99.90;;;;;;5070079;28;20720;-81
2023/01/04 00:08:26;;;;;;;13.67;6.83;;;6.40;99.90;;;;;;5049963;28;20812;-82
2023/01/04 00:11:17;;;;;;;12.47;7.00;;;6.30;99.90;;;;;;5067402;28;20223;-82
2023/01/04 00:14:06;;;;;;;14.77;7.87;;;6.30;99.90;;;;;;5093794;28;20377;-82
2023/01/04 00:16:55;;;;;;;13.57;7.13;;;6.30;99.90;;;;;;5072515;28;20229;-82
2023/01/04 00:19:44;;;;;;;15.60;7.37;;;6.40;99.90;;;;;;5077978;28;20228;-82
2023/01/04 00:22:34;;;;;;;17.20;7.50;;;6.50;99.90;;;;;;5081844;28;20688;-82
2023/01/04 00:25:24;;;;;;;16.70;6.90;;;6.40;99.90;;;;;;5054909;28;20235;-82
2023/01/04 00:28:13;;;;;;;11.37;6.93;;;6.40;99.90;;;;;;5076360;28;20232;-83
2023/01/04 00:31:03;;;;;;;15.37;6.93;;;6.30;99.90;;;;;;5071869;28;20276;-83
2023/01/04 00:33:54;;;;;;;14.40;6.90;;;6.40;99.90;;;;;;5070490;28;20221;-83
2023/01/04 00:36:44;;;;;;;13.80;7.33;;;6.40;99.90;;;;;;5082803;28;20227;-82
2023/01/04 00:39:33;;;;;;;13.50;7.40;;;6.40;99.90;;;;;;5087720;28;20281;-83
2023/01/04 00:42:23;;;;;;;15.20;6.93;;;6.30;99.90;;;;;;5069272;28;20317;-84
2023/01/04 00:45:12;;;;;;;17.50;8.20;;;6.40;99.90;;;;;;5082553;28;20226;-81
2023/01/04 00:48:01;;;;;;;17.27;7.83;;;6.30;99.90;;;;;;5069914;28;20847;-84
2023/01/04 00:50:51;;;;;;;16.00;8.40;;;6.20;99.90;;;;;;5057520;28;20230;-83
2023/01/04 00:53:40;;;;;;;13.57;8.27;;;6.10;99.90;;;;;;5047930;28;20228;-84
2023/01/04 00:56:29;;;;;;;14.60;8.03;;;6.00;99.90;;;;;;5072340;28;20608;-84
2023/01/04 00:59:21;;;;;;;14.20;8.43;;;6.10;99.90;;;;;;5046970;28;20327;-84
2023/01/04 01:02:10;;;;;;;14.97;8.33;;;6.00;99.90;;;;;;5064690;28;20353;-84
2023/01/04 01:04:59;;;;;;;15.07;8.03;;;6.00;99.90;;;;;;5051443;28;20243;-85
2023/01/04 01:07:48;;;;;;;20.07;9.20;;;6.10;99.90;;;;;;5082194;28;20292;-85
2023/01/04 01:10:37;;;;;;;17.47;9.20;;;6.10;99.90;;;;;;5073565;28;20707;-83
2023/01/04 01:13:26;;;;;;;21.00;9.30;;;6.00;99.90;;;;;;5072675;28;21053;-87
2023/01/04 01:16:18;;;;;;;17.63;9.80;;;6.10;99.90;;;;;;5089158;28;20215;-86
2023/01/04 01:19:28;;;;;;;16.83;9.33;;;5.90;99.90;;;;;;5084386;28;20229;-87
2023/01/04 01:22:17;;;;;;;19.77;10.00;;;5.80;99.90;;;;;;5059097;28;20634;-88
2023/01/04 01:25:07;;;;;;;17.13;9.20;;;5.70;99.90;;;;;;5049898;28;20244;-87
2023/01/04 01:27:55;;;;;;;18.50;9.87;;;5.80;99.90;;;;;;5082898;28;20279;-85
2023/01/04 01:30:44;;;;;;;18.63;9.53;;;5.90;99.90;;;;;;5084463;28;20245;-84
2023/01/04 01:33:36;;;;;;;17.80;10.30;;;5.80;99.90;;;;;;5088468;28;20242;-86
2023/01/04 01:36:26;;;;;;;22.33;9.83;;;5.70;99.90;;;;;;5083181;28;20225;-86
2023/01/04 01:39:15;;;;;;;18.07;10.23;;;5.70;99.90;;;;;;5082195;28;20219;-85
2023/01/04 01:42:04;;;;;;;20.73;10.13;;;5.70;99.90;;;;;;5103226;27;20220;-84
2023/01/04 01:44:58;;;;;;;18.20;10.73;;;5.70;99.90;;;;;;5112376;27;20227;-86
2023/01/04 01:47:50;;;;;;;19.77;9.90;;;5.60;99.90;;;;;;5090751;27;20225;-86
2023/01/04 01:50:44;;;;;;;17.83;10.03;;;5.80;99.90;;;;;;5067440;28;20449;-85
2023/01/04 01:53:37;;;;;;;20.90;9.80;;;5.60;99.90;;;;;;5081129;28;20225;-85
2023/01/04 01:56:29;;;;;;;20.20;10.57;;;5.70;99.90;;;;;;5056356;28;20366;-85
2023/01/04 01:59:19;;;;;;;18.73;11.03;;;5.50;99.90;;;;;;5048014;28;20220;-85
2023/01/04 02:02:10;;;;;;;19.10;10.63;;;5.50;99.90;;;;;;5078414;28;20708;-85
2023/01/04 02:05:01;;;;;;;18.63;10.63;;;5.50;99.90;;;;;;5060648;28;20236;-85
2023/01/04 02:07:53;;;;;;;19.83;9.93;;;5.40;99.90;;;;;;5059020;28;20286;-85
2023/01/04 02:10:41;;;;;;;19.17;10.63;;;5.50;99.90;;;;;;5098384;28;20311;-84
2023/01/04 02:16:47;;;;;;;17.30;9.37;;;5.60;99.90;;;;;;5048116;28;20224;-84
2023/01/04 02:20:01;;;;;;;17.50;9.43;;;5.50;99.90;;;;;;5080403;28;20702;-81
2023/01/04 02:23:17;;;;;;;17.07;9.87;;;5.50;99.90;;;;;;5090693;27;20295;-83
2023/01/04 02:26:46;;;;;;;20.23;10.40;;;5.30;99.90;;;;;;5083907;28;20230;-83
2023/01/04 02:30:11;;;;;;;21.43;10.70;;;5.20;99.90;;;;;;5074390;28;20231;-83
2023/01/04 02:33:20;;;;;;;21.03;10.00;;;5.30;99.90;;;;;;5044279;28;20279;-84
2023/01/04 02:36:21;;;;;;;17.80;10.57;;;5.20;99.90;;;;;;5052728;28;20226;-83
2023/01/04 02:39:18;;;;;;;17.13;10.73;;;5.30;99.90;;;;;;5061430;28;20227;-84
2023/01/04 02:42:14;;;;;;;19.47;10.83;;;5.20;99.90;;;;;;5085998;28;20216;-84
2023/01/04 02:45:04;;;;;;;22.50;11.80;;;5.10;99.90;;;;;;5086084;28;20226;-79
2023/01/04 02:51:01;;;;;;;21.70;10.90;;;5.30;99.90;;;;;;5098538;28;20211;-80
2023/01/04 02:53:49;;;;;;;19.70;11.23;;;5.10;99.90;;;;;;5099458;28;20235;-81
2023/01/04 02:56:53;;;;;;;19.70;11.07;;;5.10;99.90;;;;;;5075812;28;20244;-81
2023/01/04 03:00:06;;;;;;;19.00;11.00;;;5.00;99.90;;;;;;5075130;28;20236;-80
2023/01/04 03:06:30;;;;;;;21.93;10.83;;;5.00;99.90;;;;;;5085844;28;20212;-82
2023/01/04 03:09:22;;;;;;;18.37;11.07;;;5.00;99.90;;;;;;5097725;28;20215;-83
2023/01/04 03:12:31;;;;;;;22.30;11.70;;;5.00;99.90;;;;;;5074809;28;20219;-82
2023/01/04 03:15:23;;;;;;;20.10;11.50;;;4.90;99.90;;;;;;5094387;28;20234;-83
2023/01/04 03:18:19;;;;;;;21.60;11.90;;;5.00;99.90;;;;;;5108072;28;20223;-82
2023/01/04 03:21:11;;;;;;;23.53;11.40;;;5.00;99.90;;;;;;5075942;28;20215;-83
2023/01/04 03:36:47;;;;;;;25.00;13.17;;;4.50;99.90;;;;;;5110036;27;20231;-79
2023/01/04 03:49:29;;;;;;;26.00;14.03;;;4.70;99.90;;;;;;5083284;28;20245;-85
2023/01/04 03:52:19;;;;;;;22.77;13.40;;;4.60;99.90;;;;;;5082728;28;20255;-80
2023/01/04 03:55:11;;;;;;;20.67;13.13;;;4.70;99.90;;;;;;5079619;28;20845;-79
2023/01/04 03:58:00;;;;;;;25.37;13.90;;;4.70;99.90;;;;;;5086361;28;20225;-79
2023/01/04 04:00:50;;;;;;;24.53;12.10;;;4.60;99.90;;;;;;5085019;28;20219;-79
2023/01/04 04:09:51;;;;;;;22.63;13.43;;;4.40;99.90;;;;;;5076879;28;20424;-82
2023/01/04 04:12:41;;;;;;;25.37;13.43;;;4.50;99.90;;;;;;5071484;28;20306;-82
2023/01/04 04:15:30;;;;;;;21.53;12.40;;;4.40;99.90;;;;;;5081185;28;20728;-81
2023/01/04 04:18:19;;;;;;;21.23;12.67;;;4.20;99.90;;;;;;5066265;28;20307;-82
2023/01/04 04:21:08;;;;;;;23.37;13.50;;;4.20;99.90;;;;;;5092424;28;20727;-81
2023/01/04 04:23:58;;;;;;;21.63;12.70;;;4.20;99.90;;;;;;5081163;28;20231;-80
2023/01/04 04:26:46;;;;;;;24.93;14.07;;;4.30;99.90;;;;;;5083239;28;20224;-83
2023/01/04 04:29:36;;;;;;;21.80;13.93;;;4.30;99.90;;;;;;5070272;28;20230;-82
2023/01/04 04:32:25;;;;;;;24.53;14.53;;;4.20;99.90;;;;;;5083839;28;21008;-80
2023/01/04 04:35:14;;;;;;;22.57;13.97;;;4.30;99.90;;;;;;5078871;28;20234;-82
2023/01/04 04:38:03;;;;;;;24.50;14.00;;;4.20;99.90;;;;;;5085025;28;20235;-82
2023/01/04 04:43:59;;;;;;;23.67;14.00;;;4.30;99.90;;;;;;5083714;28;20219;-84
2023/01/04 04:46:49;;;;;;;21.80;13.23;;;4.30;99.90;;;;;;5078513;28;20220;-82
2023/01/04 04:49:39;;;;;;;23.30;13.80;;;4.30;99.90;;;;;;5050048;28;20216;-85
2023/01/04 04:52:30;;;;;;;27.73;15.80;;;4.30;99.90;;;;;;5062643;28;20251;-84
2023/01/04 04:55:18;;;;;;;24.77;13.87;;;4.30;99.90;;;;;;5082124;28;20622;-83
2023/01/04 04:58:07;;;;;;;24.30;14.00;;;4.40;99.90;;;;;;5110782;27;20227;-83
2023/01/04 05:00:56;;;;;;;27.07;16.00;;;4.30;99.90;;;;;;5085403;28;20223;-82
2023/01/04 05:03:46;;;;;;;24.20;13.67;;;4.30;99.90;;;;;;5081892;28;20227;-83
2023/01/04 05:06:35;;;;;;;26.37;14.23;;;4.30;99.90;;;;;;5090470;28;20231;-83
2023/01/04 05:09:24;;;;;;;23.23;13.87;;;4.40;99.90;;;;;;5082610;28;20223;-82
2023/01/04 05:15:19;;;;;;;22.27;13.10;;;4.10;99.90;;;;;;5098544;27;20220;-83
2023/01/04 05:18:09;;;;;;;27.03;15.50;;;4.00;99.90;;;;;;5093243;28;20211;-82
2023/01/04 05:21:01;;;;;;;27.80;14.93;;;4.10;99.90;;;;;;5087351;28;20687;-84
2023/01/04 05:23:50;;;;;;;23.00;13.73;;;4.00;99.90;;;;;;5082167;28;20231;-83
2023/01/04 05:26:39;;;;;;;24.67;14.20;;;4.00;99.90;;;;;;5077821;28;20754;-83
2023/01/04 05:32:34;;;;;;;25.23;14.37;;;4.00;99.90;;;;;;5047341;28;20337;-80
2023/01/04 05:35:23;;;;;;;24.50;13.53;;;3.80;99.90;;;;;;5071784;28;20317;-81
2023/01/04 05:38:14;;;;;;;31.27;15.63;;;3.70;99.90;;;;;;5064417;28;20220;-81
2023/01/04 05:41:03;;;;;;;28.20;14.63;;;3.50;99.90;;;;;;5086377;28;20220;-81
2023/01/04 05:43:51;;;;;;;24.97;14.80;;;3.50;99.90;;;;;;5060559;28;20236;-80
2023/01/04 05:46:40;;;;;;;27.87;15.43;;;3.50;99.90;;;;;;5068072;28;20289;-81
2023/01/04 05:49:29;;;;;;;25.97;15.00;;;3.40;99.90;;;;;;5043590;28;20944;-79
2023/01/04 05:52:18;;;;;;;28.50;16.00;;;3.40;99.90;;;;;;5065374;28;20238;-81
2023/01/04 05:55:10;;;;;;;28.10;15.27;;;3.30;99.90;;;;;;5049784;28;20330;-82
2023/01/04 05:57:58;;;;;;;28.17;15.97;;;3.40;99.90;;;;;;5043830;28;20220;-81
2023/01/04 06:00:47;;;;;;;27.70;15.47;;;3.40;99.90;;;;;;5077001;28;21093;-80
2023/01/04 06:03:36;;;;;;;29.37;15.37;;;3.40;99.90;;;;;;5073871;28;20234;-80
2023/01/04 06:06:25;;;;;;;25.87;16.00;;;3.40;99.90;;;;;;5074749;28;20215;-80
2023/01/04 06:09:14;;;;;;;27.70;16.77;;;3.40;99.90;;;;;;5082678;28;20216;-88
2023/01/04 06:12:05;;;;;;;27.13;15.30;;;3.40;99.90;;;;;;5081251;28;20606;-87
2023/01/04 06:14:54;;;;;;;29.20;15.57;;;3.40;99.90;;;;;;5085642;28;20223;-88
2023/01/04 06:17:43;;;;;;;25.20;16.40;;;3.40;99.90;;;;;;5097536;28;20255;-89
2023/01/04 06:20:31;;;;;;;29.03;16.43;;;3.60;99.90;;;;;;5094185;28;20686;-88
2023/01/04 06:23:20;;;;;;;27.57;16.40;;;3.60;99.90;;;;;;5078257;28;20219;-85
2023/01/04 06:26:09;;;;;;;26.93;16.47;;;3.40;99.90;;;;;;5088958;28;20252;-80
2023/01/04 06:28:59;;;;;;;30.63;16.73;;;3.50;99.90;;;;;;5074102;28;20290;-78
2023/01/04 06:31:48;;;;;;;31.00;15.87;;;3.40;99.90;;;;;;5079077;28;20657;-77
2023/01/04 06:34:37;;;;;;;29.03;16.17;;;3.40;99.90;;;;;;5086807;28;20234;-84
2023/01/04 06:37:26;;;;;;;33.17;17.13;;;3.40;99.90;;;;;;5082907;28;20995;-82
2023/01/04 06:40:15;;;;;;;30.37;16.60;;;3.50;99.90;;;;;;5107632;27;20978;-80
2023/01/04 06:43:04;;;;;;;35.43;17.20;;;3.50;99.90;;;;;;5079039;28;20708;-78
2023/01/04 06:45:54;;;;;;;31.77;17.43;;;3.60;99.90;;;;;;5082909;28;20230;-81
2023/01/04 06:48:43;;;;;;;34.27;18.00;;;3.50;99.90;;;;;;5059727;28;20317;-80
2023/01/04 06:51:32;;;;;;;31.80;17.30;;;3.70;99.90;;;;;;5078722;28;20220;-81
2023/01/04 06:54:21;;;;;;;31.13;17.20;;;3.70;99.90;;;;;;5073728;28;20238;-80
2023/01/04 06:57:10;;;;;;;28.13;16.97;;;3.60;99.90;;;;;;5074964;28;20809;-80
2023/01/04 06:59:58;;;;;;;30.50;17.37;;;3.60;99.90;;;;;;5083115;28;20892;-81
2023/01/04 07:02:49;;;;;;;34.93;17.47;;;3.70;99.90;;;;;;5071317;28;20240;-80
2023/01/04 07:05:58;;;;;;;32.00;17.83;;;3.60;99.90;;;;;;5084655;28;20705;-78
2023/01/04 07:08:47;;;;;;;31.87;17.73;;;3.70;99.90;;;;;;5081768;28;20313;-79
2023/01/04 07:11:36;;;;;;;32.57;18.23;;;3.60;99.90;;;;;;5086596;28;20682;-79
2023/01/04 07:14:25;;;;;;;30.37;17.47;;;3.50;99.90;;;;;;5075896;28;20292;-80
2023/01/04 07:17:13;;;;;;;35.37;18.67;;;3.40;99.90;;;;;;5075789;28;20487;-85
2023/01/04 07:20:04;;;;;;;31.20;17.67;;;3.50;99.90;;;;;;5095611;27;20217;-85
2023/01/04 07:22:54;;;;;;;28.40;17.13;;;3.50;99.90;;;;;;5115244;27;20230;-88
2023/01/04 07:25:43;;;;;;;32.43;17.53;;;3.40;99.90;;;;;;5095177;28;20226;-88
2023/01/04 07:31:38;;;;;;;30.83;18.97;;;3.50;99.90;;;;;;5087085;28;20697;-85
2023/01/04 07:34:28;;;;;;;34.43;18.83;;;3.50;99.90;;;;;;5075163;28;20227;-83
2023/01/04 07:37:18;;;;;;;29.20;18.80;;;3.40;99.90;;;;;;5097753;27;20231;-83
2023/01/04 07:40:08;;;;;;;34.30;19.73;;;3.30;99.90;;;;;;5076471;28;20214;-79
2023/01/04 07:42:58;;;;;;;33.40;18.73;;;3.40;99.90;;;;;;5081673;28;20729;-83
2023/01/04 07:45:47;;;;;;;36.43;20.10;;;3.50;99.90;;;;;;5054377;28;20311;-85
2023/01/04 07:48:36;;;;;;;32.93;19.80;;;3.40;99.90;;;;;;5060941;28;20276;-85
2023/01/04 07:51:25;;;;;;;34.70;19.77;;;3.40;99.90;;;;;;5062900;28;21019;-86
2023/01/04 07:54:16;;;;;;;36.40;21.00;;;3.40;99.90;;;;;;5079585;28;20219;-85
2023/01/04 07:57:05;;;;;;;37.70;20.90;;;3.60;99.90;;;;;;5102594;27;20282;-88
2023/01/04 07:59:53;;;;;;;34.77;21.53;;;3.50;99.90;;;;;;5069437;28;20271;-85
2023/01/04 08:02:43;;;;;;;32.03;20.30;;;3.60;99.90;;;;;;5087188;28;20243;-85
2023/01/04 08:05:33;;;;;;;39.43;23.40;;;3.60;99.90;;;;;;5073789;28;20365;-85
2023/01/04 08:08:22;;;;;;;37.47;22.80;;;3.60;99.90;;;;;;5074131;28;20245;-88
2023/01/04 08:11:14;;;;;;;35.83;21.13;;;3.50;99.90;;;;;;5067719;28;20378;-85
2023/01/04 08:14:04;;;;;;;39.20;22.50;;;3.70;99.90;;;;;;5056716;28;20728;-86
2023/01/04 08:16:53;;;;;;;37.33;22.93;;;3.70;99.90;;;;;;5099968;28;20217;-87
2023/01/04 08:19:41;;;;;;;44.47;23.40;;;3.70;99.90;;;;;;5067826;28;20216;-87
2023/01/04 08:22:30;;;;;;;40.53;24.43;;;3.70;99.90;;;;;;5071348;28;20226;-88
2023/01/04 08:25:19;;;;;;;43.07;23.53;;;3.80;99.90;;;;;;5072304;28;20220;-89
2023/01/04 08:28:10;;;;;;;38.67;23.80;;;3.80;99.90;;;;;;5102688;28;20222;-82
2023/01/04 08:30:59;;;;;;;40.70;23.67;;;3.60;99.90;;;;;;5080888;28;20223;-80
2023/01/04 08:33:49;;;;;;;37.10;22.67;;;3.70;99.90;;;;;;5084960;28;20242;-83
2023/01/04 08:36:47;;;;;;;39.53;23.63;;;3.80;99.90;;;;;;5064072;28;20741;-84
2023/01/04 08:39:36;;;;;;;39.77;23.87;;;3.80;99.90;;;;;;5094515;27;20223;-85
2023/01/04 08:42:25;;;;;;;40.63;24.50;;;3.80;99.90;;;;;;5079785;28;20258;-81
2023/01/04 08:45:20;;;;;;;37.77;24.27;;;3.80;99.90;;;;;;5063970;28;20216;-86
2023/01/04 08:48:09;;;;;;;43.23;25.13;;;3.80;99.90;;;;;;5068988;28;20216;-84
2023/01/04 08:50:59;;;;;;;45.07;24.53;;;3.90;99.90;;;;;;5086428;28;20255;-85
2023/01/04 08:53:48;;;;;;;38.03;24.27;;;3.90;99.90;;;;;;5094130;28;20243;-84
2023/01/04 08:56:37;;;;;;;43.60;23.80;;;4.00;99.90;;;;;;5086176;28;20235;-86
2023/01/04 08:59:27;;;;;;;41.90;24.07;;;4.10;99.90;;;;;;5065516;28;20587;-83
2023/01/04 09:02:22;;;;;;;40.53;23.87;;;4.20;99.90;;;;;;5068292;28;20220;-82
2023/01/04 09:05:12;;;;;;;38.53;24.53;;;4.20;99.90;;;;;;5068910;28;20261;-84
2023/01/04 09:08:11;;;;;;;41.90;24.80;;;4.30;99.90;;;;;;5072076;28;20226;-82
2023/01/04 09:11:05;;;;;;;41.07;24.87;;;4.40;99.90;;;;;;5094078;28;20219;-84
2023/01/04 09:13:59;;;;;;;43.10;24.77;;;4.50;99.90;;;;;;5070652;28;20220;-83
2023/01/04 09:16:56;;;;;;;45.47;25.20;;;4.50;99.90;;;;;;5065217;28;20899;-83
2023/01/04 09:19:46;;;;;;;41.17;24.67;;;4.60;99.90;;;;;;5079193;28;20218;-84
2023/01/04 09:22:35;;;;;;;41.93;24.40;;;4.90;99.90;;;;;;5089611;28;20230;-83
2023/01/04 09:25:24;;;;;;;39.93;24.63;;;4.90;99.90;;;;;;5103849;27;20223;-80
2023/01/04 09:28:13;;;;;;;36.50;23.37;;;5.10;99.90;;;;;;5107393;27;20248;-83
2023/01/04 09:31:05;;;;;;;43.80;24.47;;;5.10;99.90;;;;;;5071643;28;20268;-83
2023/01/04 09:33:55;;;;;;;44.30;24.47;;;5.20;99.90;;;;;;5075791;28;20227;-79
2023/01/04 09:37:03;;;;;;;42.33;25.10;;;5.20;99.90;;;;;;5073149;28;20220;-80
2023/01/04 09:39:52;;;;;;;34.87;22.20;;;5.20;99.90;;;;;;5073208;28;20243;-81
2023/01/04 09:42:44;;;;;;;37.97;23.17;;;5.20;99.90;;;;;;5075091;28;20405;-83
2023/01/04 09:45:36;;;;;;;34.80;21.93;;;5.10;99.90;;;;;;5085703;27;20316;-81
2023/01/04 09:48:29;;;;;;;36.00;22.07;;;5.10;99.90;;;;;;5073394;28;20246;-80
2023/01/04 09:51:21;;;;;;;32.50;21.63;;;5.20;99.90;;;;;;5082308;27;20231;-80
2023/01/04 09:54:16;;;;;;;35.27;22.67;;;5.20;99.90;;;;;;5108433;27;20230;-82
2023/01/04 09:57:05;;;;;;;36.30;21.50;;;5.20;99.90;;;;;;5075593;28;20220;-83
2023/01/04 09:59:58;;;;;;;33.57;20.77;;;5.20;99.90;;;;;;5107355;27;21415;-83
2023/01/04 10:02:51;;;;;;;39.23;21.63;;;5.40;99.90;;;;;;5078185;28;20228;-80
2023/01/04 10:05:41;;;;;;;36.77;21.03;;;5.30;99.90;;;;;;5080876;28;20724;-80
2023/01/04 10:08:31;;;;;;;31.07;19.77;;;5.20;99.90;;;;;;5078355;28;20828;-82
2023/01/04 10:11:33;;;;;;;32.47;19.93;;;5.10;99.90;;;;;;5087442;28;20481;-82
2023/01/04 10:14:43;;;;;;;29.60;19.40;;;5.30;99.90;;;;;;5090570;27;20227;-82
2023/01/04 10:17:46;;;;;;;31.87;18.77;;;5.30;99.90;;;;;;5073798;28;20216;-81
2023/01/04 10:21:16;;;;;;;33.97;19.93;;;5.30;99.90;;;;;;5081176;28;20717;-81
2023/01/04 10:24:33;;;;;;;29.73;18.47;;;5.40;99.90;;;;;;5110134;27;20231;-79
2023/01/04 10:27:34;;;;;;;31.87;18.90;;;5.40;99.90;;;;;;5073969;28;20224;-81
2023/01/04 10:30:40;;;;;;;32.30;19.03;;;5.30;99.90;;;;;;5073253;28;20223;-82
2023/01/04 10:33:34;;;;;;;33.60;19.13;;;5.50;99.90;;;;;;5091526;28;20221;-80
2023/01/04 10:36:30;;;;;;;28.10;18.30;;;5.40;99.90;;;;;;5077673;28;20577;-81
2023/01/04 10:39:22;;;;;;;32.13;19.03;;;5.50;99.90;;;;;;5076262;28;20218;-81
2023/01/04 10:42:26;;;;;;;31.10;19.17;;;5.60;99.90;;;;;;5095798;28;20248;-82
2023/01/04 10:45:20;;;;;;;31.03;18.03;;;5.60;99.90;;;;;;5080221;28;20567;-82
2023/01/04 10:48:17;;;;;;;29.50;18.13;;;5.60;99.90;;;;;;5080858;28;20223;-84
2023/01/04 10:51:06;;;;;;;31.10;19.40;;;5.70;99.90;;;;;;5083642;28;20219;-83
2023/01/04 10:54:05;;;;;;;32.23;18.53;;;5.70;99.90;;;;;;5085562;27;20231;-84
2023/01/04 10:57:01;;;;;;;34.77;19.33;;;5.60;99.90;;;;;;5075374;28;20236;-81
2023/01/04 11:00:00;;;;;;;37.50;20.10;;;5.40;99.90;;;;;;5076959;28;20302;-81
2023/01/04 11:02:58;;;;;;;34.10;18.97;;;5.40;99.90;;;;;;5101955;27;20220;-82
2023/01/04 11:06:07;;;;;;;33.93;20.27;;;5.50;99.90;;;;;;5087923;28;20211;-82
2023/01/04 11:09:03;;;;;;;33.00;18.70;;;5.50;99.90;;;;;;5109986;27;20223;-82
2023/01/04 11:11:55;;;;;;;32.03;19.53;;;5.60;99.90;;;;;;5091233;28;20217;-84
2023/01/04 11:14:44;;;;;;;32.90;18.90;;;5.70;99.90;;;;;;5079525;28;20227;-82
2023/01/04 11:17:33;;;;;;;33.73;19.53;;;5.80;99.90;;;;;;5090573;28;20222;-81
2023/01/04 11:20:23;;;;;;;30.17;19.40;;;5.70;99.90;;;;;;5076762;28;20242;-81
2023/01/04 11:23:17;;;;;;;29.37;18.60;;;5.80;99.90;;;;;;5072718;28;20219;-82
2023/01/04 11:26:12;;;;;;;32.60;19.47;;;5.80;99.90;;;;;;5105395;28;20602;-82
2023/01/04 11:29:05;;;;;;;29.40;19.33;;;5.90;99.90;;;;;;5078708;28;20727;-83
2023/01/04 11:32:00;;;;;;;33.73;19.97;;;5.90;99.90;;;;;;5078088;28;20280;-83
2023/01/04 11:34:52;;;;;;;33.27;19.97;;;5.90;99.90;;;;;;5086820;28;20584;-82
2023/01/04 11:37:42;;;;;;;31.77;19.83;;;6.00;99.90;;;;;;5071091;28;20769;-81
2023/01/04 11:40:32;;;;;;;29.63;19.13;;;6.00;99.90;;;;;;5105222;28;20246;-84
2023/01/04 11:43:22;;;;;;;32.90;19.33;;;6.00;99.90;;;;;;5096042;28;20303;-84
2023/01/04 11:46:24;;;;;;;31.27;19.03;;;6.00;99.90;;;;;;5085765;28;20231;-80
2023/01/04 11:49:20;;;;;;;29.80;19.07;;;6.00;99.90;;;;;;5079724;28;20306;-84
2023/01/04 11:52:30;;;;;;;32.37;19.63;;;6.00;99.90;;;;;;5075681;28;20761;-84
2023/01/04 11:55:28;;;;;;;36.03;20.20;;;5.90;99.90;;;;;;5087568;28;20362;-82
2023/01/04 11:58:19;;;;;;;29.90;20.23;;;5.90;99.90;;;;;;5079444;28;20220;-83
2023/01/04 12:01:21;;;;;;;34.57;19.67;;;6.00;99.90;;;;;;5074923;28;20213;-84
2023/01/04 12:04:16;;;;;;;33.83;19.77;;;6.10;99.90;;;;;;5081365;28;20305;-82
2023/01/04 12:07:12;;;;;;;36.40;20.07;;;6.10;99.90;;;;;;5083299;28;20215;-83
2023/01/04 12:10:12;;;;;;;38.73;20.67;;;6.10;99.90;;;;;;5081945;28;20645;-83
2023/01/04 12:13:03;;;;;;;34.10;20.37;;;6.10;99.90;;;;;;5095406;28;20224;-82
2023/01/04 12:16:04;;;;;;;31.13;20.10;;;6.10;99.90;;;;;;5106102;27;20220;-81
2023/01/04 12:18:54;;;;;;;35.03;20.83;;;6.30;99.90;;;;;;5086625;28;20492;-84
2023/01/04 12:21:45;;;;;;;37.03;22.00;;;6.30;99.90;;;;;;5065459;28;20223;-86
2023/01/04 12:24:35;;;;;;;35.00;20.53;;;6.30;99.90;;;;;;5083531;28;20223;-80
2023/01/04 12:27:24;;;;;;;34.77;21.50;;;6.30;99.90;;;;;;5079379;28;20223;-81
2023/01/04 12:30:43;;;;;;;39.03;22.53;;;6.30;99.90;;;;;;5083342;28;20215;-81
2023/01/04 12:33:39;;;;;;;34.10;20.87;;;6.30;99.90;;;;;;5087309;28;20230;-81
2023/01/04 12:37:00;;;;;;;34.67;21.60;;;6.40;99.90;;;;;;5083207;28;20307;-80
2023/01/04 12:39:54;;;;;;;34.07;21.07;;;6.40;99.90;;;;;;5079379;28;20831;-83
2023/01/04 12:43:22;;;;;;;37.33;22.20;;;6.40;99.90;;;;;;5099467;28;20343;-81
2023/01/04 12:49:52;;;;;;;42.33;21.80;;;6.40;99.90;;;;;;5081792;28;21013;-81
2023/01/04 12:52:45;;;;;;;34.87;21.77;;;6.40;99.90;;;;;;5084010;28;20224;-82
2023/01/04 12:55:55;;;;;;;34.33;20.83;;;6.40;99.90;;;;;;5077555;28;20702;-85
2023/01/04 12:59:06;;;;;;;33.53;20.83;;;6.40;99.90;;;;;;5077909;28;20224;-83
2023/01/04 13:02:23;;;;;;;33.27;20.00;;;6.40;99.90;;;;;;5082051;28;20645;-82
2023/01/04 13:05:35;;;;;;;35.90;20.07;;;6.50;99.90;;;;;;5095854;27;20223;-81
2023/01/04 13:08:44;;;;;;;27.33;18.40;;;6.40;99.90;;;;;;5077095;28;20227;-83
2023/01/04 13:11:57;;;;;;;34.20;19.03;;;6.50;99.90;;;;;;5080966;28;20300;-81
2023/01/04 13:14:50;;;;;;;32.70;19.07;;;6.50;99.90;;;;;;5105608;27;20373;-82
2023/01/04 13:17:43;;;;;;;32.30;19.03;;;6.50;99.90;;;;;;5081084;28;20249;-82
2023/01/04 13:20:38;;;;;;;26.93;18.20;;;6.50;99.90;;;;;;5108204;27;20230;-83
2023/01/04 13:23:29;;;;;;;36.47;18.23;;;6.60;99.90;;;;;;5092409;28;20305;-81
2023/01/04 13:26:29;;;;;;;30.00;17.70;;;6.60;99.90;;;;;;5091354;28;20312;-82
2023/01/04 13:29:21;;;;;;;28.67;17.80;;;6.70;99.90;;;;;;5106259;27;20597;-82
2023/01/04 13:32:11;;;;;;;28.40;17.70;;;6.70;99.90;;;;;;5085764;28;20213;-82
2023/01/04 13:35:12;;;;;;;28.87;18.20;;;6.70;99.90;;;;;;5077487;28;20277;-81
2023/01/04 13:38:02;;;;;;;28.93;16.97;;;6.60;99.90;;;;;;5082140;28;20253;-82
2023/01/04 13:40:51;;;;;;;29.37;18.13;;;6.70;99.90;;;;;;5082462;28;20242;-81
2023/01/04 13:44:00;;;;;;;29.70;17.60;;;6.70;99.90;;;;;;5101987;27;20235;-82
2023/01/04 13:46:52;;;;;;;28.47;17.37;;;6.70;99.90;;;;;;5077671;28;20272;-82
2023/01/04 13:49:41;;;;;;;25.27;16.57;;;6.80;99.90;;;;;;5080207;28;20219;-81
2023/01/04 13:52:32;;;;;;;26.93;17.07;;;6.80;99.90;;;;;;5083194;28;20230;-82
2023/01/04 13:55:41;;;;;;;32.20;16.57;;;6.80;99.90;;;;;;5081261;28;20227;-81
2023/01/04 13:58:31;;;;;;;31.37;17.27;;;6.80;99.90;;;;;;5080200;28;20223;-79
2023/01/04 14:01:24;;;;;;;26.43;16.80;;;6.80;99.90;;;;;;5094457;28;20228;-81
2023/01/04 14:04:21;;;;;;;29.53;16.33;;;6.80;99.90;;;;;;5072463;28;20286;-81
2023/01/04 14:07:10;;;;;;;27.90;15.97;;;6.80;99.90;;;;;;5077128;28;20599;-82
2023/01/04 14:10:01;;;;;;;27.43;16.37;;;6.80;99.90;;;;;;5080159;28;20216;-86
2023/01/04 14:12:52;;;;;;;25.53;16.33;;;6.80;99.90;;;;;;5081893;28;20226;-84
2023/01/04 14:15:40;;;;;;;26.23;16.90;;;6.90;99.90;;;;;;5078224;28;20219;-83
2023/01/04 14:18:31;;;;;;;28.27;16.67;;;6.90;99.90;;;;;;5077343;28;21087;-86
2023/01/04 14:21:34;;;;;;;28.60;15.97;;;6.90;99.90;;;;;;5063199;28;20721;-87
2023/01/04 14:24:32;;;;;;;27.43;15.37;;;6.90;99.90;;;;;;5061463;28;20231;-86
2023/01/04 14:27:43;;;;;;;28.80;15.23;;;6.90;99.90;;;;;;5064600;28;20254;-86
2023/01/04 14:30:32;;;;;;;25.37;15.70;;;6.90;99.90;;;;;;5067566;28;20704;-86
2023/01/04 14:33:25;;;;;;;25.43;15.57;;;6.90;99.90;;;;;;5054470;28;20315;-86
2023/01/04 14:36:19;;;;;;;26.23;15.43;;;7.00;99.90;;;;;;5073353;28;20231;-86
2023/01/04 14:39:32;;;;;;;25.83;15.37;;;6.90;99.90;;;;;;5073277;28;20224;-87
2023/01/04 14:42:26;;;;;;;22.70;13.50;;;6.90;99.90;;;;;;5076611;28;20813;-86
2023/01/04 14:45:17;;;;;;;30.10;15.43;;;7.00;99.90;;;;;;5059963;28;20227;-85
2023/01/04 14:48:07;;;;;;;26.10;14.57;;;7.00;99.90;;;;;;5078331;28;20224;-87
2023/01/04 14:50:56;;;;;;;25.03;15.23;;;7.00;99.90;;;;;;5062908;28;20626;-87
2023/01/04 14:53:45;;;;;;;23.43;14.40;;;7.10;99.90;;;;;;5064825;28;20355;-86
2023/01/04 14:56:34;;;;;;;24.73;14.50;;;7.10;99.90;;;;;;5071348;28;20337;-86
2023/01/04 14:59:23;;;;;;;32.67;17.93;;;7.00;99.90;;;;;;5072803;28;20266;-86
2023/01/04 15:02:14;;;;;;;21.37;14.67;;;7.10;99.90;;;;;;5070359;28;20230;-86
2023/01/04 15:05:03;;;;;;;25.77;15.27;;;7.00;99.90;;;;;;5097429;28;20734;-86
2023/01/04 15:07:52;;;;;;;25.13;14.67;;;6.90;99.90;;;;;;5073616;28;20228;-86
2023/01/04 15:10:41;;;;;;;27.60;14.47;;;6.90;99.90;;;;;;5100121;28;20261;-87
2023/01/04 15:13:30;;;;;;;24.93;15.33;;;6.90;99.90;;;;;;5097046;28;20220;-86
2023/01/04 15:16:27;;;;;;;25.97;15.40;;;6.90;99.90;;;;;;5095942;28;20224;-87
2023/01/04 15:19:17;;;;;;;23.60;15.23;;;6.80;99.90;;;;;;5086905;28;20822;-87
2023/01/04 15:22:06;;;;;;;24.67;16.63;;;6.80;99.90;;;;;;5062784;28;20226;-88
2023/01/04 15:24:55;;;;;;;25.60;15.33;;;6.80;99.90;;;;;;5068333;28;20223;-88
2023/01/04 15:27:44;;;;;;;25.33;16.03;;;6.80;99.90;;;;;;5117494;28;20287;-90
2023/01/04 15:30:33;;;;;;;26.73;16.37;;;6.70;99.90;;;;;;5105936;28;20227;-91
2023/01/04 15:33:22;;;;;;;26.63;16.30;;;6.80;99.90;;;;;;5107608;28;20290;-89
2023/01/04 15:36:49;;;;;;;25.37;16.10;;;6.80;99.90;;;;;;5113331;28;20205;-88
2023/01/04 15:39:38;;;;;;;25.83;16.67;;;6.90;99.90;;;;;;5111318;27;20682;-86
2023/01/04 15:45:36;;;;;;;30.47;16.20;;;6.80;99.90;;;;;;5071898;28;20225;-86
2023/01/04 15:48:25;;;;;;;22.53;15.23;;;6.80;99.90;;;;;;5072519;28;20276;-87
2023/01/04 15:51:14;;;;;;;27.90;16.10;;;6.80;99.90;;;;;;5054444;28;20295;-86